Time;durP1;ratioP1;P1;durP2;ratioP2;P2;SDS_P1;SDS_P2;PMS_P1;PMS_P2;Temp;Humidity;BMP_temperature;BMP_pressure;BME280_temperature;BME280_humidity;BME280_pressure;Samples;Min_cycle;Max_cycle;Signal;HPM_P1;HPM_P2
2023/12/18 00:00:49;;;;;;;15.65;7.25;;;;;;;;;;5051711;28;20028;-51
2023/12/18 00:03:16;;;;;;;8.02;4.85;;;;;;;;;;5047744;28;20017;-48
2023/12/18 00:05:42;;;;;;;7.93;4.70;;;;;;;;;;5047498;28;20111;-46
2023/12/18 00:08:11;;;;;;;8.77;5.00;;;;;;;;;;5049521;28;20095;-49
2023/12/18 00:10:36;;;;;;;11.23;5.05;;;;;;;;;;5049277;28;20029;-48
2023/12/18 00:13:02;;;;;;;10.25;6.03;;;;;;;;;;5049531;28;20025;-47
2023/12/18 00:15:28;;;;;;;10.93;6.00;;;;;;;;;;5049179;28;20029;-44
2023/12/18 00:17:54;;;;;;;10.80;5.93;;;;;;;;;;5049303;28;20044;-45
2023/12/18 00:20:20;;;;;;;8.45;4.95;;;;;;;;;;5049163;28;20017;-45
2023/12/18 00:22:46;;;;;;;8.10;4.80;;;;;;;;;;5048972;28;20504;-47
2023/12/18 00:25:12;;;;;;;13.43;6.55;;;;;;;;;;5049086;28;20040;-46
2023/12/18 00:27:38;;;;;;;12.52;5.95;;;;;;;;;;5049349;28;20029;-44
2023/12/18 00:30:05;;;;;;;8.48;4.97;;;;;;;;;;5048881;28;20159;-47
2023/12/18 00:32:31;;;;;;;13.20;6.35;;;;;;;;;;5049061;28;20430;-51
2023/12/18 00:34:57;;;;;;;13.93;7.30;;;;;;;;;;5045547;28;20064;-45
2023/12/18 00:37:23;;;;;;;17.10;7.65;;;;;;;;;;5044756;28;20462;-47
2023/12/18 00:39:49;;;;;;;12.55;6.95;;;;;;;;;;5049159;28;20028;-46
2023/12/18 00:42:15;;;;;;;14.50;6.68;;;;;;;;;;5048993;28;20029;-47
2023/12/18 00:44:42;;;;;;;16.92;7.00;;;;;;;;;;5049303;28;20070;-48
2023/12/18 00:47:08;;;;;;;11.05;6.32;;;;;;;;;;5045013;28;20018;-47
2023/12/18 00:49:34;;;;;;;12.30;7.00;;;;;;;;;;5046276;28;20231;-46
2023/12/18 00:52:00;;;;;;;11.93;5.78;;;;;;;;;;5048826;28;20414;-46
2023/12/18 00:54:26;;;;;;;16.45;8.07;;;;;;;;;;5049315;28;20045;-49
2023/12/18 00:56:52;;;;;;;9.77;5.75;;;;;;;;;;5048800;28;20037;-51
2023/12/18 00:59:18;;;;;;;13.35;6.88;;;;;;;;;;5049095;28;20093;-46
2023/12/18 01:01:44;;;;;;;11.32;7.38;;;;;;;;;;5048413;28;20651;-47
2023/12/18 01:04:10;;;;;;;17.20;8.60;;;;;;;;;;5048784;28;20017;-44
2023/12/18 01:06:37;;;;;;;13.63;6.88;;;;;;;;;;5044694;28;20029;-46
2023/12/18 01:09:03;;;;;;;17.63;7.95;;;;;;;;;;5048473;28;20017;-48
2023/12/18 01:11:29;;;;;;;11.80;7.18;;;;;;;;;;5048381;28;20063;-48
2023/12/18 01:13:55;;;;;;;12.98;6.22;;;;;;;;;;4698320;28;10001050;-46
2023/12/18 01:16:21;;;;;;;16.67;8.73;;;;;;;;;;5061415;23;20052;-63
2023/12/18 01:18:47;;;;;;;14.68;7.47;;;;;;;;;;5029938;28;20474;-63
2023/12/18 01:21:14;;;;;;;13.38;6.80;;;;;;;;;;5031307;28;20022;-63
2023/12/18 01:23:40;;;;;;;13.90;7.88;;;;;;;;;;5040356;28;20010;-63
2023/12/18 01:26:06;;;;;;;16.20;7.97;;;;;;;;;;5031976;28;20044;-63
2023/12/18 01:28:32;;;;;;;13.82;7.65;;;;;;;;;;5031204;28;20028;-63
2023/12/18 01:30:59;;;;;;;11.60;5.60;;;;;;;;;;5031242;28;20025;-64
2023/12/18 01:33:25;;;;;;;19.30;11.45;;;;;;;;;;5032243;28;20037;-63
2023/12/18 01:35:51;;;;;;;19.63;10.32;;;;;;;;;;5014223;28;20104;-64
2023/12/18 01:38:17;;;;;;;12.52;6.38;;;;;;;;;;5032258;28;20101;-64
2023/12/18 01:40:44;;;;;;;13.85;7.80;;;;;;;;;;5014412;28;20022;-63
2023/12/18 01:43:26;;;;;;;20.13;9.30;;;;;;;;;;5032028;28;20066;-64
2023/12/18 01:45:59;;;;;;;15.77;6.45;;;;;;;;;;5028119;28;20434;-63
2023/12/18 01:48:26;;;;;;;8.10;4.70;;;;;;;;;;5032360;28;20108;-64
2023/12/18 01:50:56;;;;;;;13.43;6.20;;;;;;;;;;5031861;28;20037;-64
2023/12/18 01:53:26;;;;;;;11.45;6.60;;;;;;;;;;5015016;28;20392;-63
2023/12/18 01:55:52;;;;;;;11.02;5.55;;;;;;;;;;5032428;28;20134;-61
2023/12/18 01:58:18;;;;;;;9.13;5.10;;;;;;;;;;5014626;28;20487;-63
2023/12/18 02:00:45;;;;;;;12.18;7.53;;;;;;;;;;5032397;28;20068;-63
2023/12/18 02:03:11;;;;;;;8.18;4.78;;;;;;;;;;5032351;28;20018;-63
2023/12/18 02:05:37;;;;;;;16.23;9.48;;;;;;;;;;5032262;28;20517;-64
2023/12/18 02:08:04;;;;;;;8.80;5.75;;;;;;;;;;5031969;28;20372;-62
2023/12/18 02:10:30;;;;;;;9.18;5.80;;;;;;;;;;5014644;28;20475;-63
2023/12/18 02:12:56;;;;;;;10.63;6.05;;;;;;;;;;5032347;28;20029;-63
2023/12/18 02:15:22;;;;;;;13.90;7.90;;;;;;;;;;5025302;28;20097;-63
2023/12/18 02:17:48;;;;;;;11.65;6.10;;;;;;;;;;5014537;28;20030;-62
2023/12/18 02:20:14;;;;;;;15.23;7.22;;;;;;;;;;5032623;28;20021;-63
2023/12/18 02:22:46;;;;;;;11.73;6.90;;;;;;;;;;5016142;28;20014;-63
2023/12/18 02:25:12;;;;;;;11.75;7.07;;;;;;;;;;5031865;28;20024;-62
2023/12/18 02:27:39;;;;;;;9.27;5.60;;;;;;;;;;5014508;28;20155;-63
2023/12/18 02:30:05;;;;;;;12.30;5.82;;;;;;;;;;5032231;28;20048;-62
2023/12/18 02:32:31;;;;;;;10.05;5.90;;;;;;;;;;5031754;28;20101;-62
2023/12/18 02:34:57;;;;;;;12.68;6.97;;;;;;;;;;5015441;28;20092;-63
2023/12/18 02:37:24;;;;;;;9.32;5.25;;;;;;;;;;5031283;28;20613;-63
2023/12/18 02:39:50;;;;;;;8.05;4.80;;;;;;;;;;5031106;28;20152;-63
2023/12/18 02:42:16;;;;;;;20.95;8.38;;;;;;;;;;5030811;28;20037;-64
2023/12/18 02:44:42;;;;;;;9.70;5.63;;;;;;;;;;5013225;28;20658;-64
2023/12/18 02:47:08;;;;;;;8.15;4.80;;;;;;;;;;5031083;28;20025;-64
2023/12/18 02:49:34;;;;;;;10.15;5.65;;;;;;;;;;5030886;28;20108;-62
2023/12/18 02:52:00;;;;;;;12.27;6.50;;;;;;;;;;4993555;28;20064;-63
2023/12/18 02:54:26;;;;;;;12.50;6.88;;;;;;;;;;5010640;28;20391;-62
2023/12/18 02:56:52;;;;;;;9.68;5.40;;;;;;;;;;5011608;28;20065;-63
2023/12/18 02:59:18;;;;;;;10.60;6.30;;;;;;;;;;4994005;28;20062;-63
2023/12/18 03:01:43;;;;;;;10.70;5.75;;;;;;;;;;4994071;28;20097;-62
2023/12/18 03:04:09;;;;;;;19.33;7.93;;;;;;;;;;5011431;28;20467;-63
2023/12/18 03:06:35;;;;;;;7.82;4.60;;;;;;;;;;4993685;28;20160;-62
2023/12/18 03:09:01;;;;;;;17.38;7.70;;;;;;;;;;5011658;28;20128;-63
2023/12/18 03:11:27;;;;;;;12.65;8.65;;;;;;;;;;5018395;28;20356;-62
2023/12/18 03:13:54;;;;;;;23.08;7.70;;;;;;;;;;5030793;28;20037;-62
2023/12/18 03:16:20;;;;;;;9.70;6.15;;;;;;;;;;5021780;28;20022;-63
2023/12/18 03:18:46;;;;;;;10.27;7.10;;;;;;;;;;5030152;28;20037;-62
2023/12/18 03:21:12;;;;;;;8.68;5.22;;;;;;;;;;5030735;28;20072;-63
2023/12/18 03:23:38;;;;;;;12.48;8.10;;;;;;;;;;5031288;28;20020;-62
2023/12/18 03:26:04;;;;;;;8.77;5.15;;;;;;;;;;5013552;28;20022;-63
2023/12/18 03:28:30;;;;;;;8.93;5.35;;;;;;;;;;5031652;28;20460;-62
2023/12/18 03:30:56;;;;;;;11.50;5.45;;;;;;;;;;5030755;28;20029;-63
2023/12/18 03:33:22;;;;;;;10.00;6.00;;;;;;;;;;5031088;28;20026;-64
2023/12/18 03:35:48;;;;;;;10.68;5.53;;;;;;;;;;5005078;28;20499;-63
2023/12/18 03:38:14;;;;;;;8.50;5.00;;;;;;;;;;5017059;28;20044;-63
2023/12/18 03:40:40;;;;;;;12.15;6.30;;;;;;;;;;5010601;28;20022;-63
2023/12/18 03:43:06;;;;;;;10.25;6.03;;;;;;;;;;4993408;28;20021;-62
2023/12/18 03:45:32;;;;;;;8.82;5.20;;;;;;;;;;5011550;28;20041;-63
2023/12/18 03:47:58;;;;;;;9.27;5.43;;;;;;;;;;5011096;28;20022;-63
2023/12/18 03:50:24;;;;;;;8.52;5.18;;;;;;;;;;5000086;28;20022;-62
2023/12/18 03:52:50;;;;;;;20.35;8.48;;;;;;;;;;5028202;28;20037;-63
2023/12/18 03:55:16;;;;;;;8.57;4.95;;;;;;;;;;5011214;28;20617;-64
2023/12/18 03:57:42;;;;;;;9.20;5.45;;;;;;;;;;5009181;28;20072;-63
2023/12/18 04:00:08;;;;;;;9.57;5.68;;;;;;;;;;5010452;28;20022;-63
2023/12/18 04:02:34;;;;;;;10.82;6.70;;;;;;;;;;5008991;28;20032;-62
2023/12/18 04:05:00;;;;;;;11.30;7.28;;;;;;;;;;5031134;28;20025;-64
2023/12/18 04:07:26;;;;;;;11.93;7.18;;;;;;;;;;5034336;28;20021;-62
2023/12/18 04:09:52;;;;;;;8.38;5.03;;;;;;;;;;5013533;28;20040;-64
2023/12/18 04:12:18;;;;;;;13.43;5.22;;;;;;;;;;4996480;28;20487;-63
2023/12/18 04:14:44;;;;;;;10.13;5.82;;;;;;;;;;5016013;28;20021;-63
2023/12/18 04:17:10;;;;;;;11.48;6.20;;;;;;;;;;5033555;28;20036;-63
2023/12/18 04:19:36;;;;;;;8.07;4.80;;;;;;;;;;5033665;28;20049;-64
2023/12/18 04:22:02;;;;;;;8.27;4.90;;;;;;;;;;5016006;28;20068;-63
2023/12/18 04:24:28;;;;;;;15.23;9.73;;;;;;;;;;5016744;28;20406;-63
2023/12/18 04:26:54;;;;;;;12.68;5.45;;;;;;;;;;5033639;28;20033;-64
2023/12/18 04:29:20;;;;;;;9.95;5.72;;;;;;;;;;5033951;28;20545;-64
2023/12/18 04:31:47;;;;;;;11.27;6.07;;;;;;;;;;5033601;28;20402;-63
2023/12/18 04:34:13;;;;;;;8.43;5.03;;;;;;;;;;5033909;28;20117;-62
2023/12/18 04:36:39;;;;;;;21.17;10.73;;;;;;;;;;5032833;28;20082;-64
2023/12/18 04:39:05;;;;;;;10.55;5.80;;;;;;;;;;5015341;28;20052;-63
2023/12/18 04:41:31;;;;;;;22.17;7.43;;;;;;;;;;5033353;28;20018;-63
2023/12/18 04:43:57;;;;;;;14.95;7.53;;;;;;;;;;5015052;28;20022;-64
2023/12/18 04:46:24;;;;;;;12.27;5.95;;;;;;;;;;5032462;28;20021;-64
2023/12/18 04:48:50;;;;;;;8.80;5.97;;;;;;;;;;5033178;28;20014;-63
2023/12/18 04:51:16;;;;;;;9.95;5.57;;;;;;;;;;5033128;28;20020;-63
2023/12/18 04:53:42;;;;;;;10.07;6.00;;;;;;;;;;5015536;28;20025;-64
2023/12/18 04:56:08;;;;;;;9.13;5.45;;;;;;;;;;5014955;28;20032;-63
2023/12/18 04:58:37;;;;;;;11.32;6.70;;;;;;;;;;5015273;28;20025;-61
2023/12/18 05:01:03;;;;;;;16.95;7.20;;;;;;;;;;5032415;28;20025;-64
2023/12/18 05:03:29;;;;;;;7.65;4.57;;;;;;;;;;5025438;28;20018;-62
2023/12/18 05:05:55;;;;;;;15.10;7.47;;;;;;;;;;5012823;28;20022;-64
2023/12/18 05:08:21;;;;;;;10.23;5.72;;;;;;;;;;5013229;28;20021;-63
2023/12/18 05:10:47;;;;;;;17.33;8.20;;;;;;;;;;5010948;28;20084;-63
2023/12/18 05:13:13;;;;;;;10.40;5.57;;;;;;;;;;5021453;28;20022;-64
2023/12/18 05:15:39;;;;;;;8.75;5.10;;;;;;;;;;4994622;28;20045;-63
2023/12/18 05:18:06;;;;;;;10.80;6.20;;;;;;;;;;5011773;28;20029;-64
2023/12/18 05:20:32;;;;;;;10.82;5.10;;;;;;;;;;4995207;28;20060;-63
2023/12/18 05:22:58;;;;;;;9.23;5.65;;;;;;;;;;5012921;28;20025;-63
2023/12/18 05:25:24;;;;;;;8.70;5.13;;;;;;;;;;5009252;28;20463;-63
2023/12/18 05:27:50;;;;;;;7.60;4.50;;;;;;;;;;5014309;28;20077;-60
2023/12/18 05:30:16;;;;;;;8.73;5.20;;;;;;;;;;5025705;28;20033;-64
2023/12/18 05:32:42;;;;;;;8.02;4.75;;;;;;;;;;5020136;28;20029;-63
2023/12/18 05:35:08;;;;;;;7.95;4.75;;;;;;;;;;5031454;28;20024;-62
2023/12/18 05:37:34;;;;;;;8.50;5.38;;;;;;;;;;5031871;28;20423;-64
2023/12/18 05:40:00;;;;;;;8.02;4.55;;;;;;;;;;5009800;28;20052;-63
2023/12/18 05:42:26;;;;;;;10.55;5.65;;;;;;;;;;5011289;28;20103;-63
2023/12/18 05:44:52;;;;;;;13.50;6.55;;;;;;;;;;5005532;28;20029;-64
2023/12/18 05:47:18;;;;;;;7.97;4.88;;;;;;;;;;5032122;28;20041;-64
2023/12/18 05:49:44;;;;;;;9.82;5.80;;;;;;;;;;5014052;28;20091;-63
2023/12/18 05:52:10;;;;;;;8.90;5.40;;;;;;;;;;5018142;28;20026;-64
2023/12/18 05:54:37;;;;;;;8.82;5.32;;;;;;;;;;5011704;28;20364;-64
2023/12/18 05:57:03;;;;;;;7.95;4.72;;;;;;;;;;5011387;28;20026;-63
2023/12/18 05:59:30;;;;;;;11.45;5.53;;;;;;;;;;5010837;28;20038;-64
2023/12/18 06:01:56;;;;;;;12.25;7.25;;;;;;;;;;5011190;28;20494;-65
2023/12/18 06:04:22;;;;;;;7.68;4.68;;;;;;;;;;5010119;28;20133;-64
2023/12/18 06:06:48;;;;;;;8.60;4.72;;;;;;;;;;5021527;28;20021;-63
2023/12/18 06:09:14;;;;;;;11.00;5.25;;;;;;;;;;5031012;28;20359;-63
2023/12/18 06:11:40;;;;;;;7.63;4.43;;;;;;;;;;5013434;28;20025;-63
2023/12/18 06:14:06;;;;;;;11.90;6.90;;;;;;;;;;5008462;28;20028;-64
2023/12/18 06:16:32;;;;;;;9.48;6.78;;;;;;;;;;4993370;28;20063;-63
2023/12/18 06:18:59;;;;;;;7.63;4.43;;;;;;;;;;5011366;28;20022;-62
2023/12/18 06:21:26;;;;;;;10.63;5.93;;;;;;;;;;5010426;28;20121;-65
2023/12/18 06:23:52;;;;;;;10.73;5.55;;;;;;;;;;5010815;28;20048;-61
2023/12/18 06:26:18;;;;;;;10.23;5.15;;;;;;;;;;5010618;28;20091;-63
2023/12/18 06:28:44;;;;;;;15.90;6.63;;;;;;;;;;5027798;28;20025;-63
2023/12/18 06:31:10;;;;;;;7.45;4.32;;;;;;;;;;5029848;28;20031;-63
2023/12/18 06:33:36;;;;;;;7.63;4.43;;;;;;;;;;5021179;28;20497;-59
2023/12/18 06:36:02;;;;;;;7.50;4.40;;;;;;;;;;4993102;28;20062;-62
2023/12/18 06:38:28;;;;;;;11.38;6.00;;;;;;;;;;4992500;28;20116;-64
2023/12/18 06:40:54;;;;;;;13.73;7.55;;;;;;;;;;4992416;28;20033;-64
2023/12/18 06:43:20;;;;;;;7.88;4.30;;;;;;;;;;5010469;28;20084;-64
2023/12/18 06:45:46;;;;;;;6.65;3.90;;;;;;;;;;4993055;28;20014;-64
2023/12/18 06:48:12;;;;;;;8.30;4.60;;;;;;;;;;5010687;28;20396;-64
2023/12/18 06:50:38;;;;;;;10.13;6.95;;;;;;;;;;5018336;28;20097;-64
2023/12/18 06:53:04;;;;;;;11.32;5.22;;;;;;;;;;4999726;28;20022;-62
2023/12/18 06:55:33;;;;;;;9.68;6.80;;;;;;;;;;5009546;28;20030;-61
2023/12/18 06:57:58;;;;;;;;;;;;;;;;;;5011292;28;20077;-64
2023/12/18 07:00:25;;;;;;;8.05;4.80;;;;;;;;;;5008561;28;20014;-61
2023/12/18 07:02:51;;;;;;;9.60;5.53;;;;;;;;;;5020486;28;20037;-63
2023/12/18 07:05:17;;;;;;;11.63;6.28;;;;;;;;;;5029619;28;20032;-63
2023/12/18 07:07:43;;;;;;;6.72;3.83;;;;;;;;;;5029744;28;20036;-61
2023/12/18 07:10:09;;;;;;;7.13;4.13;;;;;;;;;;5029516;28;20026;-63
2023/12/18 07:12:35;;;;;;;8.55;5.35;;;;;;;;;;5029484;28;20021;-64
2023/12/18 07:15:01;;;;;;;9.50;5.10;;;;;;;;;;5029270;28;20394;-64
2023/12/18 07:17:27;;;;;;;8.45;4.68;;;;;;;;;;5030574;28;20079;-64
2023/12/18 07:19:53;;;;;;;12.05;6.50;;;;;;;;;;5029866;28;20364;-64
2023/12/18 07:22:19;;;;;;;10.10;5.32;;;;;;;;;;5021750;28;20029;-64
2023/12/18 07:24:45;;;;;;;9.50;4.82;;;;;;;;;;5025262;28;20424;-64
2023/12/18 07:27:11;;;;;;;11.93;6.00;;;;;;;;;;5027181;28;20025;-64
2023/12/18 07:29:37;;;;;;;12.98;5.05;;;;;;;;;;5010632;28;20492;-63
2023/12/18 07:32:03;;;;;;;10.38;6.43;;;;;;;;;;5029249;28;20030;-64
2023/12/18 07:34:29;;;;;;;7.13;4.18;;;;;;;;;;5028879;28;20502;-64
2023/12/18 07:36:55;;;;;;;8.50;4.72;;;;;;;;;;5029748;28;20040;-64
2023/12/18 07:39:21;;;;;;;6.70;4.32;;;;;;;;;;5008543;28;20021;-62
2023/12/18 07:41:47;;;;;;;9.20;5.20;;;;;;;;;;5013013;28;20018;-62
2023/12/18 07:44:13;;;;;;;13.82;5.97;;;;;;;;;;5012116;28;20391;-61
2023/12/18 07:46:39;;;;;;;10.13;6.72;;;;;;;;;;5030506;28;20436;-64
2023/12/18 07:49:06;;;;;;;11.07;8.65;;;;;;;;;;5011149;28;20025;-63
2023/12/18 07:51:33;;;;;;;6.47;3.85;;;;;;;;;;5012943;28;20068;-63
2023/12/18 07:53:59;;;;;;;6.85;3.90;;;;;;;;;;5003656;28;20025;-64
2023/12/18 07:56:25;;;;;;;6.10;3.58;;;;;;;;;;5019216;28;20022;-63
2023/12/18 07:58:51;;;;;;;17.63;10.23;;;;;;;;;;5023802;28;20032;-63
2023/12/18 08:01:18;;;;;;;10.13;5.57;;;;;;;;;;5032643;28;20391;-64
2023/12/18 08:03:44;;;;;;;11.63;6.63;;;;;;;;;;5033483;28;20061;-62
2023/12/18 08:06:10;;;;;;;7.05;4.32;;;;;;;;;;5032612;28;20052;-63
2023/12/18 08:08:36;;;;;;;6.53;3.70;;;;;;;;;;5033244;28;20052;-63
2023/12/18 08:11:02;;;;;;;6.00;3.60;;;;;;;;;;5015371;28;20076;-64
2023/12/18 08:13:28;;;;;;;6.28;3.70;;;;;;;;;;5033598;28;20100;-62
2023/12/18 08:15:54;;;;;;;5.90;3.50;;;;;;;;;;5032652;28;21506;-62
2023/12/18 08:18:20;;;;;;;7.55;4.38;;;;;;;;;;5032244;28;20025;-63
2023/12/18 08:20:46;;;;;;;6.50;3.83;;;;;;;;;;5014216;28;20040;-63
2023/12/18 08:23:12;;;;;;;7.53;5.10;;;;;;;;;;5027284;28;20026;-63
2023/12/18 08:25:38;;;;;;;6.65;3.90;;;;;;;;;;5021187;28;20036;-62
2023/12/18 08:28:04;;;;;;;9.05;5.85;;;;;;;;;;5033131;28;20626;-63
2023/12/18 08:30:30;;;;;;;6.80;4.10;;;;;;;;;;5032092;28;20033;-63
2023/12/18 08:32:56;;;;;;;9.40;5.25;;;;;;;;;;5028861;28;20044;-62
2023/12/18 08:35:22;;;;;;;7.20;4.20;;;;;;;;;;5011929;28;20025;-62
2023/12/18 08:37:48;;;;;;;9.85;5.50;;;;;;;;;;5012131;28;20088;-63
2023/12/18 08:40:14;;;;;;;9.13;5.45;;;;;;;;;;5012803;28;20101;-62
2023/12/18 08:42:40;;;;;;;7.88;4.65;;;;;;;;;;5020436;28;20081;-62
2023/12/18 08:45:06;;;;;;;7.18;4.47;;;;;;;;;;5013095;28;20017;-59
2023/12/18 08:47:32;;;;;;;7.65;4.65;;;;;;;;;;5030247;28;20021;-62
2023/12/18 08:49:58;;;;;;;9.15;6.05;;;;;;;;;;5029862;28;20028;-53
2023/12/18 08:52:24;;;;;;;8.93;4.90;;;;;;;;;;5029897;28;20064;-50
2023/12/18 08:54:50;;;;;;;7.72;4.70;;;;;;;;;;5029817;28;20060;-53
2023/12/18 08:57:16;;;;;;;15.65;10.80;;;;;;;;;;5017954;28;20076;-52
2023/12/18 08:59:42;;;;;;;16.10;9.20;;;;;;;;;;5010308;28;20026;-51
2023/12/18 09:02:09;;;;;;;6.82;4.03;;;;;;;;;;5010100;28;20018;-54
2023/12/18 09:04:35;;;;;;;6.30;3.75;;;;;;;;;;5010803;28;20090;-56
2023/12/18 09:07:01;;;;;;;14.05;6.63;;;;;;;;;;5009983;28;20191;-56
2023/12/18 09:09:27;;;;;;;8.00;4.22;;;;;;;;;;5009963;28;20041;-55
2023/12/18 09:11:53;;;;;;;8.65;5.38;;;;;;;;;;5009797;28;20045;-54
2023/12/18 09:14:19;;;;;;;27.27;6.13;;;;;;;;;;5010149;28;20025;-55
2023/12/18 09:16:45;;;;;;;15.88;7.22;;;;;;;;;;5009580;28;20030;-52
2023/12/18 09:19:11;;;;;;;6.63;4.32;;;;;;;;;;5015521;28;20521;-53
2023/12/18 09:21:37;;;;;;;18.02;8.55;;;;;;;;;;5019690;28;20029;-53
2023/12/18 09:24:03;;;;;;;9.27;5.75;;;;;;;;;;5020268;28;20025;-53
2023/12/18 09:26:29;;;;;;;10.43;6.78;;;;;;;;;;5020208;28;20045;-55
2023/12/18 09:28:56;;;;;;;25.90;11.85;;;;;;;;;;5011099;28;20598;-56
2023/12/18 09:31:22;;;;;;;13.85;6.32;;;;;;;;;;5008453;28;20116;-52
2023/12/18 09:33:48;;;;;;;12.15;5.45;;;;;;;;;;5009777;28;20105;-50
2023/12/18 09:36:14;;;;;;;9.15;6.50;;;;;;;;;;5009492;28;20098;-52
2023/12/18 09:38:40;;;;;;;20.83;7.93;;;;;;;;;;5009499;28;20463;-53
2023/12/18 09:41:07;;;;;;;6.57;3.92;;;;;;;;;;5013526;28;20495;-52
2023/12/18 09:43:33;;;;;;;15.15;9.20;;;;;;;;;;5029074;28;20158;-54
2023/12/18 09:45:59;;;;;;;11.88;5.25;;;;;;;;;;5029120;28;20021;-56
2023/12/18 09:48:25;;;;;;;22.67;7.25;;;;;;;;;;5029210;28;20064;-53
2023/12/18 09:50:52;;;;;;;18.30;9.80;;;;;;;;;;5028720;28;20064;-50
2023/12/18 09:53:20;;;;;;;10.88;6.40;;;;;;;;;;5029612;28;20479;-55
2023/12/18 09:55:48;;;;;;;;;;;;;;;;;;5028990;28;20076;-59
2023/12/18 09:58:17;;;;;;;11.85;6.07;;;;;;;;;;5028644;28;19909;-60
2023/12/18 10:00:43;;;;;;;11.10;6.00;;;;;;;;;;5019396;28;20499;-59
2023/12/18 10:03:09;;;;;;;8.45;5.22;;;;;;;;;;5009043;28;20021;-57
2023/12/18 10:05:36;;;;;;;8.95;4.30;;;;;;;;;;5008752;28;20037;-59
2023/12/18 10:08:02;;;;;;;9.70;5.38;;;;;;;;;;5028794;28;20453;-58
2023/12/18 10:10:28;;;;;;;14.93;8.95;;;;;;;;;;5010583;28;20491;-60
2023/12/18 10:12:54;;;;;;;8.93;4.80;;;;;;;;;;5028378;28;20102;-55
2023/12/18 10:15:20;;;;;;;11.18;6.38;;;;;;;;;;5028328;28;20080;-57
2023/12/18 10:17:46;;;;;;;10.30;5.45;;;;;;;;;;5028411;28;20025;-56
2023/12/18 10:20:12;;;;;;;12.45;6.78;;;;;;;;;;5028678;28;20092;-57
2023/12/18 10:22:43;;;;;;;18.33;10.30;;;;;;;;;;5009947;28;20442;-58
2023/12/18 10:25:09;;;;;;;15.30;8.65;;;;;;;;;;5008681;28;20510;-56
2023/12/18 10:27:38;;;;;;;15.32;4.90;;;;;;;;;;5016983;28;20563;-59
2023/12/18 10:30:08;;;;;;;7.35;4.75;;;;;;;;;;5028341;28;20100;-57
2023/12/18 10:32:39;;;;;;;18.13;8.10;;;;;;;;;;5010420;28;20020;-60
2023/12/18 10:35:06;;;;;;;8.45;5.43;;;;;;;;;;5028319;28;20108;-56
2023/12/18 10:37:33;;;;;;;8.27;5.22;;;;;;;;;;5028116;28;20096;-57
2023/12/18 10:40:06;;;;;;;11.65;6.38;;;;;;;;;;5028405;28;20523;-58
2023/12/18 10:42:37;;;;;;;14.82;6.88;;;;;;;;;;5028033;28;20301;-58
2023/12/18 10:45:03;;;;;;;17.08;9.45;;;;;;;;;;5028360;28;20027;-57
2023/12/18 10:47:31;;;;;;;8.40;5.10;;;;;;;;;;5028255;28;20021;-59
2023/12/18 10:50:00;;;;;;;13.20;6.22;;;;;;;;;;5020100;28;20514;-57
2023/12/18 10:52:28;;;;;;;12.75;6.22;;;;;;;;;;5013091;28;20030;-57
2023/12/18 10:54:54;;;;;;;9.25;5.22;;;;;;;;;;5008316;28;20065;-56
2023/12/18 10:57:20;;;;;;;10.18;6.05;;;;;;;;;;4990843;28;20566;-59
2023/12/18 10:59:50;;;;;;;9.02;4.60;;;;;;;;;;5008261;28;20120;-58
2023/12/18 11:02:16;;;;;;;6.28;3.70;;;;;;;;;;5008347;28;20029;-54
2023/12/18 11:04:46;;;;;;;19.58;8.75;;;;;;;;;;5008717;28;20033;-59
2023/12/18 11:07:14;;;;;;;9.45;6.57;;;;;;;;;;4990638;28;20033;-59
2023/12/18 11:09:40;;;;;;;9.75;6.80;;;;;;;;;;5008343;28;20046;-60
2023/12/18 11:12:06;;;;;;;14.82;7.03;;;;;;;;;;5007947;28;20142;-59
2023/12/18 11:14:44;;;;;;;16.10;9.18;;;;;;;;;;5008422;28;20430;-59
2023/12/18 11:17:29;;;;;;;14.27;7.55;;;;;;;;;;5011998;28;20033;-59
2023/12/18 11:20:06;;;;;;;15.52;8.40;;;;;;;;;;5012276;28;20435;-59
2023/12/18 11:22:40;;;;;;;15.88;6.60;;;;;;;;;;4994516;28;20108;-60
2023/12/18 11:25:07;;;;;;;17.20;8.52;;;;;;;;;;5012426;28;20523;-60
2023/12/18 11:27:34;;;;;;;16.35;8.70;;;;;;;;;;5012450;28;20113;-59
2023/12/18 11:30:01;;;;;;;9.80;5.38;;;;;;;;;;5011955;28;20026;-59
2023/12/18 11:32:56;;;;;;;18.90;11.10;;;;;;;;;;5012267;28;20112;-61
2023/12/18 11:35:27;;;;;;;13.75;6.88;;;;;;;;;;4999029;28;20103;-56
2023/12/18 11:37:57;;;;;;;13.88;8.73;;;;;;;;;;5011825;28;20104;-57
2023/12/18 11:40:33;;;;;;;12.27;5.85;;;;;;;;;;5012193;28;20022;-57
2023/12/18 11:42:59;;;;;;;15.63;8.32;;;;;;;;;;5012089;28;20030;-60
2023/12/18 11:45:25;;;;;;;13.68;8.38;;;;;;;;;;5011988;28;20025;-59
2023/12/18 11:47:58;;;;;;;16.20;7.45;;;;;;;;;;5011924;28;20255;-58
2023/12/18 11:50:25;;;;;;;27.50;10.23;;;;;;;;;;5011409;28;20026;-57
2023/12/18 11:52:54;;;;;;;9.18;5.68;;;;;;;;;;5012223;28;20134;-59
2023/12/18 11:55:43;;;;;;;10.02;6.00;;;;;;;;;;4994435;28;20036;-59
2023/12/18 11:58:09;;;;;;;10.60;7.57;;;;;;;;;;5004278;28;20540;-59
2023/12/18 12:00:36;;;;;;;18.80;8.55;;;;;;;;;;5011737;28;20049;-58
2023/12/18 12:03:03;;;;;;;9.07;5.13;;;;;;;;;;4994109;28;20030;-61
2023/12/18 12:05:30;;;;;;;9.20;5.38;;;;;;;;;;5011450;28;20026;-60
2023/12/18 12:07:56;;;;;;;7.18;4.22;;;;;;;;;;5011458;28;20086;-61
2023/12/18 12:10:22;;;;;;;9.45;5.43;;;;;;;;;;5011544;28;20030;-60
2023/12/18 12:12:54;;;;;;;12.43;7.53;;;;;;;;;;5011089;28;20181;-59
2023/12/18 12:15:27;;;;;;;11.43;6.80;;;;;;;;;;4992862;28;20025;-58
2023/12/18 12:18:01;;;;;;;19.85;8.18;;;;;;;;;;5011423;28;20395;-59
2023/12/18 12:20:27;;;;;;;6.75;3.97;;;;;;;;;;5023807;28;20018;-56
2023/12/18 12:22:53;;;;;;;10.82;6.95;;;;;;;;;;5005184;28;20048;-55
2023/12/18 12:25:19;;;;;;;15.68;6.65;;;;;;;;;;5030318;28;20049;-59
2023/12/18 12:27:45;;;;;;;12.25;7.95;;;;;;;;;;5030040;28;20021;-58
2023/12/18 12:30:12;;;;;;;10.95;7.65;;;;;;;;;;5030135;28;20018;-59
2023/12/18 12:32:39;;;;;;;10.30;5.60;;;;;;;;;;5030264;28;20526;-57
2023/12/18 12:35:07;;;;;;;8.23;4.88;;;;;;;;;;5030289;28;20021;-58
2023/12/18 12:37:33;;;;;;;7.55;4.60;;;;;;;;;;5012735;28;20386;-57
2023/12/18 12:40:06;;;;;;;11.82;5.85;;;;;;;;;;5030808;28;20032;-58
2023/12/18 12:42:32;;;;;;;8.35;5.30;;;;;;;;;;5030127;28;20025;-57
2023/12/18 12:44:58;;;;;;;9.30;5.47;;;;;;;;;;5030363;28;20026;-56
2023/12/18 12:47:27;;;;;;;8.65;4.95;;;;;;;;;;5030258;28;20021;-57
2023/12/18 12:49:53;;;;;;;15.98;9.38;;;;;;;;;;5030078;28;20021;-53
2023/12/18 12:52:20;;;;;;;17.98;8.63;;;;;;;;;;5030101;28;20022;-58
2023/12/18 12:54:49;;;;;;;13.27;6.55;;;;;;;;;;5011782;28;20025;-59
2023/12/18 12:57:16;;;;;;;7.10;4.30;;;;;;;;;;5029650;28;20510;-60
2023/12/18 12:59:52;;;;;;;9.90;5.75;;;;;;;;;;5030196;28;20113;-60
2023/12/18 13:02:18;;;;;;;11.05;6.20;;;;;;;;;;5030021;28;20028;-58
2023/12/18 13:04:45;;;;;;;7.80;4.63;;;;;;;;;;5029863;28;20083;-58
2023/12/18 13:07:11;;;;;;;8.75;5.40;;;;;;;;;;5029932;28;20013;-59
2023/12/18 13:09:37;;;;;;;9.98;6.15;;;;;;;;;;5030071;28;20100;-58
2023/12/18 13:12:04;;;;;;;17.58;9.20;;;;;;;;;;5029781;28;20021;-56
2023/12/18 13:14:33;;;;;;;14.95;7.68;;;;;;;;;;5011701;28;20376;-52
2023/12/18 13:16:59;;;;;;;9.18;5.32;;;;;;;;;;5029845;28;20494;-57
2023/12/18 13:19:25;;;;;;;18.15;9.23;;;;;;;;;;5029637;28;20572;-56
2023/12/18 13:21:52;;;;;;;8.52;5.30;;;;;;;;;;5029463;28;20030;-55
2023/12/18 13:24:18;;;;;;;11.50;6.07;;;;;;;;;;5003795;28;20021;-58
2023/12/18 13:26:44;;;;;;;17.77;9.45;;;;;;;;;;4991696;28;20102;-56
2023/12/18 13:29:10;;;;;;;13.73;6.78;;;;;;;;;;5014386;28;20470;-61
2023/12/18 13:31:37;;;;;;;12.93;9.18;;;;;;;;;;5029442;28;20380;-56
2023/12/18 13:34:03;;;;;;;8.13;4.75;;;;;;;;;;5029094;28;20028;-61
2023/12/18 13:36:30;;;;;;;10.45;6.13;;;;;;;;;;5029459;28;20087;-61
2023/12/18 13:38:57;;;;;;;9.07;5.15;;;;;;;;;;5027856;28;20090;-61
2023/12/18 13:41:32;;;;;;;12.05;8.10;;;;;;;;;;5028885;28;20017;-57
2023/12/18 13:43:59;;;;;;;13.18;7.03;;;;;;;;;;5029271;28;20073;-60
2023/12/18 13:46:25;;;;;;;15.95;6.93;;;;;;;;;;5028817;28;20535;-64
2023/12/18 13:48:52;;;;;;;12.73;6.70;;;;;;;;;;5010810;28;20037;-60
2023/12/18 13:51:18;;;;;;;7.85;4.72;;;;;;;;;;5028749;28;20490;-61
2023/12/18 13:53:44;;;;;;;8.90;5.00;;;;;;;;;;5029099;28;20025;-60
2023/12/18 13:56:11;;;;;;;11.90;5.80;;;;;;;;;;5028823;28;20426;-60
2023/12/18 13:58:37;;;;;;;14.35;7.22;;;;;;;;;;5011235;28;20514;-59
2023/12/18 14:01:03;;;;;;;9.18;5.20;;;;;;;;;;5028827;28;20021;-63
2023/12/18 14:03:30;;;;;;;15.55;7.78;;;;;;;;;;5010800;28;20032;-57
2023/12/18 14:05:56;;;;;;;11.68;5.80;;;;;;;;;;5025652;28;20112;-58
2023/12/18 14:08:22;;;;;;;8.20;4.72;;;;;;;;;;5017166;28;20036;-59
2023/12/18 14:10:50;;;;;;;8.30;5.00;;;;;;;;;;5009313;28;20100;-59
2023/12/18 14:13:16;;;;;;;11.65;7.43;;;;;;;;;;5017836;28;20022;-54
2023/12/18 14:15:42;;;;;;;13.40;7.10;;;;;;;;;;5008170;28;20402;-61
2023/12/18 14:18:08;;;;;;;8.73;5.15;;;;;;;;;;5019174;28;20107;-56
2023/12/18 14:20:34;;;;;;;18.25;9.13;;;;;;;;;;5017444;28;20442;-59
2023/12/18 14:23:00;;;;;;;13.90;6.65;;;;;;;;;;5017061;28;20032;-55
2023/12/18 14:25:26;;;;;;;8.43;5.10;;;;;;;;;;5018699;28;20483;-59
2023/12/18 14:27:52;;;;;;;8.80;5.00;;;;;;;;;;5018030;28;20498;-59
2023/12/18 14:30:19;;;;;;;11.18;6.50;;;;;;;;;;5014863;28;20113;-59
2023/12/18 14:32:45;;;;;;;9.88;6.05;;;;;;;;;;5018673;28;20483;-61